Terminal Aerodrome Forecast
Issued by NWS Bismarck, ND

Home | Current Version | Previous Version | Text Only | Print | Product List | Glossary On
Versions: 1 2 3 4 5 6 7 8 9 10 11 12 13 14 15 16 17 18
000
FTUS43 KBIS 240525
TAFBIS
TAF
KBIS 240525Z 2406/2506 VRB05KT P6SM SCT250
     FM241400 16016G24KT P6SM SCT250
     FM242100 16019G27KT P6SM SCT250
     FM250200 15013KT P6SM BKN100=

USA.gov is the U.S. government's official web portal to all federal, state and local government web resources and services.